createdAt,value
2018-12-03T00:02:27.068Z,24.80
2018-12-03T00:04:55.466Z,21.77
2018-12-03T00:07:23.924Z,23.00
2018-12-03T00:09:52.468Z,19.47
2018-12-03T00:12:20.797Z,21.47
2018-12-03T00:14:49.114Z,21.23
2018-12-03T00:17:17.730Z,19.63
2018-12-03T00:19:45.908Z,19.97
2018-12-03T00:22:14.468Z,21.17
2018-12-03T00:24:42.833Z,18.87
2018-12-03T00:27:11.404Z,20.90
2018-12-03T00:29:39.720Z,19.63
2018-12-03T00:32:08.896Z,17.10
2018-12-03T00:34:37.466Z,19.07
2018-12-03T00:37:05.809Z,22.53
2018-12-03T00:39:34.225Z,19.83
2018-12-03T00:42:02.656Z,20.47
2018-12-03T00:44:31.845Z,20.40
2018-12-03T00:47:00.324Z,17.60
2018-12-03T00:49:28.645Z,18.03
2018-12-03T00:51:56.975Z,21.30
2018-12-03T00:54:25.309Z,18.57
2018-12-03T00:56:53.631Z,17.27
2018-12-03T00:59:21.946Z,18.93
2018-12-03T01:01:50.271Z,16.40
2018-12-03T01:04:18.594Z,19.87
2018-12-03T01:06:46.927Z,17.67
2018-12-03T01:09:15.250Z,19.40
2018-12-03T01:11:43.584Z,20.03
2018-12-03T01:14:11.899Z,16.60
2018-12-03T01:16:40.226Z,19.77
2018-12-03T01:19:08.554Z,18.53
2018-12-03T01:21:36.882Z,17.83
2018-12-03T01:24:05.203Z,18.00
2018-12-03T01:26:33.525Z,19.50
2018-12-03T01:29:01.861Z,18.13
2018-12-03T01:31:30.184Z,17.00
2018-12-03T01:33:58.514Z,19.87
2018-12-03T01:36:26.841Z,19.77
2018-12-03T01:38:55.171Z,16.83
2018-12-03T01:41:23.497Z,15.83
2018-12-03T01:43:51.813Z,15.67
2018-12-03T01:46:20.167Z,17.00
2018-12-03T01:48:48.485Z,15.90
2018-12-03T01:51:16.808Z,17.33
2018-12-03T01:53:45.137Z,15.93
2018-12-03T01:56:13.461Z,15.77
2018-12-03T01:58:41.780Z,14.43
2018-12-03T02:01:10.108Z,13.63
2018-12-03T02:03:38.522Z,13.73
2018-12-03T02:06:06.852Z,13.43
2018-12-03T02:08:35.169Z,12.97
2018-12-03T02:11:03.494Z,13.20
2018-12-03T02:13:31.822Z,13.37
2018-12-03T02:16:00.139Z,11.60
2018-12-03T02:18:28.458Z,13.10
2018-12-03T02:20:56.771Z,13.77
2018-12-03T02:23:25.102Z,14.07
2018-12-03T02:25:53.416Z,13.70
2018-12-03T02:28:21.730Z,13.17
2018-12-03T02:30:50.051Z,11.03
2018-12-03T02:33:18.370Z,12.60
2018-12-03T02:35:46.694Z,12.23
2018-12-03T02:38:15.010Z,11.20
2018-12-03T02:40:43.317Z,11.43
2018-12-03T02:43:11.639Z,9.93
2018-12-03T02:45:39.951Z,10.57
2018-12-03T02:48:08.726Z,11.47
2018-12-03T02:50:37.041Z,10.23
2018-12-03T02:53:05.361Z,9.63
2018-12-03T02:55:33.684Z,10.40
2018-12-03T02:58:02.000Z,10.23
2018-12-03T03:00:30.316Z,11.40
2018-12-03T03:02:58.638Z,12.47
2018-12-03T03:05:27.066Z,14.70
2018-12-03T03:07:55.386Z,11.60
2018-12-03T03:10:23.703Z,9.80
2018-12-03T03:12:52.024Z,11.63
2018-12-03T03:15:20.339Z,11.50
2018-12-03T03:17:48.655Z,10.33
2018-12-03T03:20:16.982Z,11.20
2018-12-03T03:22:45.303Z,10.53
2018-12-03T03:25:13.624Z,10.60
2018-12-03T03:27:41.945Z,10.70
2018-12-03T03:30:10.261Z,10.43
2018-12-03T03:32:38.571Z,10.27
2018-12-03T03:35:06.895Z,10.93
2018-12-03T03:37:35.497Z,11.23
2018-12-03T03:40:03.809Z,11.30
2018-12-03T03:42:32.126Z,10.33
2018-12-03T03:45:00.446Z,10.03
2018-12-03T03:47:28.776Z,10.70
2018-12-03T03:49:57.395Z,9.50
2018-12-03T03:52:25.728Z,10.23
2018-12-03T03:54:54.027Z,9.03
2018-12-03T03:57:22.345Z,8.77
2018-12-03T03:59:50.658Z,8.63
2018-12-03T04:02:18.968Z,8.03
2018-12-03T04:04:47.283Z,8.30
2018-12-03T04:07:15.599Z,13.77
2018-12-03T04:09:43.924Z,12.30
2018-12-03T04:12:12.232Z,10.03
2018-12-03T04:14:40.536Z,9.53
2018-12-03T04:17:08.858Z,10.77
2018-12-03T04:19:37.174Z,7.87
2018-12-03T04:22:05.487Z,8.97
2018-12-03T04:24:33.800Z,9.07
2018-12-03T04:27:02.119Z,8.40
2018-12-03T04:29:30.426Z,8.40
2018-12-03T04:31:58.742Z,10.27
2018-12-03T04:34:27.071Z,10.00
2018-12-03T04:36:55.375Z,8.73
2018-12-03T04:39:23.725Z,7.80
2018-12-03T04:41:52.047Z,10.03
2018-12-03T04:44:20.360Z,8.90
2018-12-03T04:46:48.685Z,9.53
2018-12-03T04:49:16.992Z,7.87
2018-12-03T04:51:45.412Z,10.37
2018-12-03T04:54:13.717Z,9.67
2018-12-03T04:56:42.035Z,9.00
2018-12-03T04:59:10.357Z,11.83
2018-12-03T05:01:38.691Z,13.40
2018-12-03T05:04:07.021Z,17.17
2018-12-03T05:06:35.355Z,17.33
2018-12-03T05:09:03.684Z,15.13
2018-12-03T05:11:32.008Z,15.50
2018-12-03T05:14:00.332Z,18.00
2018-12-03T05:16:28.669Z,16.87
2018-12-03T05:18:56.994Z,15.07
2018-12-03T05:21:25.321Z,13.83
2018-12-03T05:23:53.643Z,19.33
2018-12-03T05:26:21.984Z,28.27
2018-12-03T05:28:50.319Z,41.83
2018-12-03T05:31:18.649Z,16.43
2018-12-03T05:33:46.973Z,16.03
2018-12-03T05:36:15.295Z,16.10
2018-12-03T05:38:43.619Z,17.20
2018-12-03T05:41:11.946Z,16.60
2018-12-03T05:43:40.270Z,16.03
2018-12-03T05:46:08.593Z,17.33
2018-12-03T05:48:36.915Z,51.00
2018-12-03T05:51:05.240Z,28.97
2018-12-03T05:53:33.591Z,16.07
2018-12-03T05:56:01.940Z,19.57
2018-12-03T05:58:30.267Z,16.80
2018-12-03T06:00:58.580Z,18.37
2018-12-03T06:03:26.917Z,25.03
2018-12-03T06:05:55.231Z,18.10
2018-12-03T06:08:23.595Z,20.07
2018-12-03T06:10:51.873Z,17.13
2018-12-03T06:13:20.215Z,15.47
2018-12-03T06:15:48.543Z,17.27
2018-12-03T06:18:17.177Z,17.00
2018-12-03T06:20:45.512Z,21.67
2018-12-03T06:23:13.835Z,16.40
2018-12-03T06:25:42.388Z,15.97
2018-12-03T06:28:10.506Z,16.77
2018-12-03T06:30:38.859Z,19.13
2018-12-03T06:33:07.189Z,19.40
2018-12-03T06:35:35.512Z,27.03
2018-12-03T06:38:03.836Z,16.27
2018-12-03T06:40:32.151Z,15.40
2018-12-03T06:43:00.526Z,15.53
2018-12-03T06:45:28.854Z,14.60
2018-12-03T06:47:57.178Z,18.87
2018-12-03T06:50:25.501Z,16.03
2018-12-03T06:52:54.187Z,15.87
2018-12-03T06:55:22.543Z,32.47
2018-12-03T06:57:50.879Z,43.57
2018-12-03T07:00:19.219Z,25.73
2018-12-03T07:02:47.544Z,18.63
2018-12-03T07:05:15.878Z,20.13
2018-12-03T07:07:44.211Z,19.47
2018-12-03T07:10:12.533Z,18.83
2018-12-03T07:12:40.863Z,19.90
2018-12-03T07:15:09.171Z,18.83
2018-12-03T07:17:37.503Z,17.63
2018-12-03T07:20:05.841Z,17.93
2018-12-03T07:22:34.167Z,19.37
2018-12-03T07:25:02.790Z,21.93
2018-12-03T07:27:31.064Z,37.97
2018-12-03T07:29:59.386Z,26.80
2018-12-03T07:32:27.721Z,23.63
2018-12-03T07:34:56.042Z,20.60
2018-12-03T07:37:24.394Z,19.20
2018-12-03T07:39:52.720Z,27.77
2018-12-03T07:42:21.049Z,31.83
2018-12-03T07:44:49.372Z,34.10
2018-12-03T07:47:17.717Z,33.63
2018-12-03T07:49:46.045Z,35.00
2018-12-03T07:52:14.594Z,36.70
2018-12-03T07:54:42.912Z,36.90
2018-12-03T07:57:11.274Z,34.60
2018-12-03T07:59:39.600Z,32.73
2018-12-03T08:02:07.924Z,31.67
2018-12-03T08:04:36.252Z,32.10
2018-12-03T08:07:04.577Z,33.20
2018-12-03T08:09:32.903Z,31.77
2018-12-03T08:12:01.240Z,34.30
2018-12-03T08:14:29.566Z,36.37
2018-12-03T08:16:57.892Z,37.83
2018-12-03T08:19:26.214Z,39.30
2018-12-03T08:21:54.539Z,40.67
2018-12-03T08:24:22.867Z,40.93
2018-12-03T08:26:51.182Z,44.60
2018-12-03T08:29:19.505Z,42.57
2018-12-03T08:31:47.829Z,43.83
2018-12-03T08:34:16.168Z,47.53
2018-12-03T08:36:44.488Z,51.27
2018-12-03T08:39:12.815Z,49.07
2018-12-03T08:41:41.145Z,38.73
2018-12-03T08:44:09.475Z,45.57
2018-12-03T08:46:38.176Z,43.80
2018-12-03T08:49:06.502Z,40.67
2018-12-03T08:51:34.832Z,38.87
2018-12-03T08:54:03.157Z,43.17
2018-12-03T08:56:31.489Z,33.27
2018-12-03T08:58:59.849Z,33.60
2018-12-03T09:01:28.181Z,33.17
2018-12-03T09:03:56.831Z,107.60
2018-12-03T09:06:25.152Z,34.30
2018-12-03T09:08:53.478Z,32.87
2018-12-03T09:11:22.411Z,24.07
2018-12-03T09:13:50.132Z,28.73
2018-12-03T09:16:18.463Z,23.17
2018-12-03T09:18:46.785Z,23.40
2018-12-03T09:21:15.100Z,23.13
2018-12-03T09:23:43.419Z,19.80
2018-12-03T09:26:11.757Z,32.73
2018-12-03T09:28:40.116Z,34.23
2018-12-03T09:31:08.425Z,21.17
2018-12-03T09:33:36.747Z,31.40
2018-12-03T09:36:05.077Z,19.73
2018-12-03T09:38:33.402Z,20.47
2018-12-03T09:41:01.728Z,12.93
2018-12-03T09:43:30.046Z,18.57
2018-12-03T09:45:58.379Z,25.83
2018-12-03T09:48:26.704Z,27.73
2018-12-03T09:50:55.022Z,18.17
2018-12-03T09:53:23.353Z,18.23
2018-12-03T09:55:51.674Z,16.43
2018-12-03T09:58:20.004Z,18.60
2018-12-03T10:00:48.461Z,13.57
2018-12-03T10:03:16.778Z,15.13
2018-12-03T10:05:45.105Z,16.60
2018-12-03T10:08:13.427Z,19.07
2018-12-03T10:10:41.748Z,13.83
2018-12-03T10:13:10.071Z,15.03
2018-12-03T10:15:38.405Z,18.83
2018-12-03T10:18:06.730Z,18.30
2018-12-03T10:20:35.054Z,29.17
2018-12-03T10:23:03.376Z,23.57
2018-12-03T10:25:31.708Z,20.83
2018-12-03T10:28:00.036Z,13.67
2018-12-03T10:30:28.368Z,15.93
2018-12-03T10:32:56.692Z,28.57
2018-12-03T10:35:25.021Z,20.33
2018-12-03T10:37:53.343Z,23.37
2018-12-03T10:40:21.668Z,26.27
2018-12-03T10:42:50.754Z,22.43
2018-12-03T10:45:19.077Z,16.97
2018-12-03T10:47:47.420Z,22.47
2018-12-03T10:50:15.752Z,18.93
2018-12-03T10:52:44.155Z,16.60
2018-12-03T10:55:12.455Z,20.83
2018-12-03T10:57:40.774Z,22.40
2018-12-03T11:00:09.107Z,42.20
2018-12-03T11:02:37.490Z,33.03
2018-12-03T11:05:08.820Z,18.00
2018-12-03T11:07:37.154Z,15.77
2018-12-03T11:10:05.569Z,14.63
2018-12-03T11:12:33.887Z,21.63
2018-12-03T11:15:02.218Z,32.77
2018-12-03T11:17:30.542Z,26.13
2018-12-03T11:19:58.871Z,20.77
2018-12-03T11:22:27.187Z,13.60
2018-12-03T11:24:55.509Z,22.63
2018-12-03T11:27:25.234Z,22.83
2018-12-03T11:29:52.177Z,17.03
2018-12-03T11:32:20.495Z,25.83
2018-12-03T11:34:48.831Z,16.43
2018-12-03T11:37:17.152Z,16.70
2018-12-03T11:39:45.484Z,19.73
2018-12-03T11:42:13.801Z,17.90
2018-12-03T11:44:42.134Z,46.27
2018-12-03T11:47:10.469Z,14.73
2018-12-03T11:49:38.806Z,13.87
2018-12-03T11:52:07.416Z,14.80
2018-12-03T11:54:35.739Z,25.37
2018-12-03T11:57:04.068Z,17.73
2018-12-03T11:59:32.418Z,24.27
2018-12-03T12:02:00.743Z,14.17
2018-12-03T12:04:30.185Z,15.37
2018-12-03T12:06:57.463Z,15.43
2018-12-03T12:09:25.814Z,17.20
2018-12-03T12:11:54.130Z,18.17
2018-12-03T12:14:22.449Z,12.43
2018-12-03T12:16:50.783Z,16.13
2018-12-03T12:19:19.138Z,15.07
2018-12-03T12:21:47.474Z,15.60
2018-12-03T12:24:15.825Z,14.57
2018-12-03T12:26:44.143Z,18.13
2018-12-03T12:29:12.470Z,14.13
2018-12-03T12:31:40.805Z,13.87
2018-12-03T12:34:09.143Z,12.27
2018-12-03T12:36:37.491Z,14.10
2018-12-03T12:39:05.793Z,14.53
2018-12-03T12:41:34.127Z,17.47
2018-12-03T12:44:02.448Z,16.60
2018-12-03T12:46:30.783Z,14.80
2018-12-03T12:48:59.153Z,16.97
2018-12-03T12:51:27.481Z,13.23
2018-12-03T12:53:55.798Z,13.77
2018-12-03T12:56:24.133Z,14.37
2018-12-03T12:58:52.454Z,14.53
2018-12-03T13:01:20.786Z,11.67
2018-12-03T13:03:49.112Z,13.50
2018-12-03T13:06:17.500Z,17.57
2018-12-03T13:08:45.827Z,18.60
2018-12-03T13:11:14.166Z,12.90
2018-12-03T13:13:42.504Z,14.23
2018-12-03T13:16:10.833Z,14.40
2018-12-03T13:18:39.168Z,16.47
2018-12-03T13:21:07.505Z,14.27
2018-12-03T13:23:36.067Z,13.63
2018-12-03T13:26:04.401Z,14.20
2018-12-03T13:28:32.736Z,14.43
2018-12-03T13:31:01.075Z,14.40
2018-12-03T13:33:29.423Z,14.83
2018-12-03T13:35:57.761Z,18.63
2018-12-03T13:38:26.125Z,21.23
2018-12-03T13:40:54.442Z,29.33
2018-12-03T13:43:22.785Z,28.97
2018-12-03T13:45:51.788Z,25.37
2018-12-03T13:48:20.119Z,44.57
2018-12-03T13:50:48.444Z,35.47
2018-12-03T13:53:16.787Z,25.87
2018-12-03T13:55:45.135Z,31.57
2018-12-03T13:58:13.463Z,20.80
2018-12-03T14:00:41.803Z,21.97
2018-12-03T14:03:10.134Z,19.80
2018-12-03T14:05:38.503Z,22.33
2018-12-03T14:08:06.888Z,24.17
2018-12-03T14:10:35.223Z,19.90
2018-12-03T14:13:03.555Z,23.23
2018-12-03T14:15:31.910Z,23.50
2018-12-03T14:18:00.230Z,27.97
2018-12-03T14:20:28.557Z,31.50
2018-12-03T14:22:56.877Z,30.53
2018-12-03T14:25:25.214Z,66.27
2018-12-03T14:27:53.889Z,40.07
2018-12-03T14:30:22.222Z,39.67
2018-12-03T14:32:50.574Z,36.83
2018-12-03T14:35:18.924Z,34.50
2018-12-03T14:37:47.864Z,32.90
2018-12-03T14:40:16.186Z,24.67
2018-12-03T14:42:44.562Z,55.07
2018-12-03T14:45:13.239Z,30.10
2018-12-03T14:47:41.578Z,18.07
2018-12-03T14:50:10.226Z,32.27
2018-12-03T14:52:38.832Z,32.10
2018-12-03T14:55:07.412Z,21.90
2018-12-03T14:57:36.035Z,23.10
2018-12-03T15:00:04.375Z,27.07
2018-12-03T15:02:32.712Z,25.03
2018-12-03T15:05:01.043Z,33.97
2018-12-03T15:07:29.619Z,19.07
2018-12-03T15:09:57.781Z,25.33
2018-12-03T15:12:26.114Z,20.47
2018-12-03T15:14:54.442Z,25.70
2018-12-03T15:17:22.772Z,26.90
2018-12-03T15:19:51.098Z,21.37
2018-12-03T15:22:19.473Z,38.30
2018-12-03T15:24:47.815Z,32.27
2018-12-03T15:27:16.163Z,33.73
2018-12-03T15:29:44.494Z,27.00
2018-12-03T15:32:12.856Z,35.73
2018-12-03T15:34:41.187Z,45.33
2018-12-03T15:37:09.523Z,34.57
2018-12-03T15:39:37.875Z,23.03
2018-12-03T15:42:06.232Z,37.33
2018-12-03T15:44:34.556Z,16.53
2018-12-03T15:47:02.890Z,63.47
2018-12-03T15:49:31.260Z,29.67
2018-12-03T15:51:59.587Z,24.63
2018-12-03T15:54:27.930Z,23.13
2018-12-03T15:56:56.281Z,16.10
2018-12-03T15:59:24.621Z,19.20
2018-12-03T16:01:52.965Z,14.97
2018-12-03T16:04:21.303Z,16.27
2018-12-03T16:06:49.664Z,15.70
2018-12-03T16:09:17.991Z,22.77
2018-12-03T16:11:46.410Z,10.23
2018-12-03T16:14:14.967Z,21.17
2018-12-03T16:16:43.297Z,20.07
2018-12-03T16:19:11.657Z,28.53
2018-12-03T16:21:40.910Z,25.10
2018-12-03T16:24:09.658Z,22.93
2018-12-03T16:26:37.995Z,45.70
2018-12-03T16:29:06.360Z,59.87
2018-12-03T16:31:34.709Z,36.27
2018-12-03T16:34:03.049Z,51.60
2018-12-03T16:36:31.446Z,35.23
2018-12-03T16:38:59.771Z,51.07
2018-12-03T16:41:28.131Z,33.80
2018-12-03T16:43:56.557Z,31.10
2018-12-03T16:46:25.914Z,61.93
2018-12-03T16:48:54.345Z,74.13
2018-12-03T16:51:22.696Z,20.40
2018-12-03T16:53:51.030Z,21.20
2018-12-03T16:56:19.368Z,55.13
2018-12-03T16:58:47.682Z,37.83
2018-12-03T17:01:16.021Z,35.93
2018-12-03T17:03:44.399Z,23.07
2018-12-03T17:06:12.726Z,18.43
2018-12-03T17:08:41.207Z,24.27
2018-12-03T17:11:09.511Z,15.87
2018-12-03T17:13:37.880Z,28.53
2018-12-03T17:16:06.280Z,12.90
2018-12-03T17:18:34.618Z,16.90
2018-12-03T17:21:03.024Z,16.70
2018-12-03T17:23:31.576Z,16.13
2018-12-03T17:25:59.670Z,12.80
2018-12-03T17:28:28.266Z,17.03
2018-12-03T17:30:56.363Z,15.13
2018-12-03T17:33:24.919Z,22.93
2018-12-03T17:35:53.022Z,20.27
2018-12-03T17:38:21.353Z,39.23
2018-12-03T17:40:49.787Z,57.33
2018-12-03T17:43:18.132Z,68.87
2018-12-03T17:45:46.869Z,57.07
2018-12-03T17:48:14.786Z,46.67
2018-12-03T17:50:43.151Z,48.60
2018-12-03T17:53:11.558Z,30.27
2018-12-03T17:55:40.057Z,16.87
2018-12-03T17:58:08.385Z,36.33
2018-12-03T18:00:36.798Z,21.77
2018-12-03T18:03:05.139Z,21.20
2018-12-03T18:05:33.502Z,22.40
2018-12-03T18:08:01.851Z,20.43
2018-12-03T18:10:30.213Z,54.37
2018-12-03T18:12:58.547Z,50.53
2018-12-03T18:15:26.976Z,44.67
2018-12-03T18:17:55.651Z,29.37
2018-12-03T18:20:23.983Z,18.83
2018-12-03T18:22:52.368Z,20.30
2018-12-03T18:25:20.708Z,27.43
2018-12-03T18:27:49.282Z,29.07
2018-12-03T18:30:17.417Z,17.07
2018-12-03T18:32:45.824Z,36.30
2018-12-03T18:35:14.181Z,36.33
2018-12-03T18:37:42.511Z,32.53
2018-12-03T18:40:10.861Z,20.57
2018-12-03T18:42:40.500Z,34.43
2018-12-03T18:45:08.882Z,22.57
2018-12-03T18:47:37.206Z,21.93
2018-12-03T18:50:05.530Z,23.07
2018-12-03T18:52:33.934Z,24.53
2018-12-03T18:55:02.298Z,38.30
2018-12-03T18:57:30.637Z,24.87
2018-12-03T18:59:58.967Z,47.27
2018-12-03T19:02:27.763Z,32.67
2018-12-03T19:04:56.105Z,33.00
2018-12-03T19:07:24.438Z,36.17
2018-12-03T19:09:52.791Z,18.40
2018-12-03T19:12:21.111Z,17.47
2018-12-03T19:14:49.450Z,18.43
2018-12-03T19:17:17.844Z,16.50
2018-12-03T19:19:46.199Z,16.33
2018-12-03T19:22:14.539Z,31.90
2018-12-03T19:24:42.877Z,49.83
2018-12-03T19:27:11.217Z,25.57
2018-12-03T19:29:39.554Z,33.00
2018-12-03T19:32:07.892Z,22.50
2018-12-03T19:34:36.567Z,33.00
2018-12-03T19:37:04.901Z,24.43
2018-12-03T19:39:33.236Z,24.90
2018-12-03T19:42:01.576Z,28.10
2018-12-03T19:44:30.345Z,32.73
2018-12-03T19:46:58.694Z,37.13
2018-12-03T19:49:27.062Z,24.30
2018-12-03T19:51:55.535Z,27.03
2018-12-03T19:54:23.919Z,35.27
2018-12-03T19:56:52.262Z,42.97
2018-12-03T19:59:20.626Z,35.33
2018-12-03T20:01:49.277Z,24.20
2018-12-03T20:04:18.211Z,23.30
2018-12-03T20:06:47.022Z,34.43
2018-12-03T20:09:16.122Z,48.87
2018-12-03T20:11:44.529Z,32.87
2018-12-03T20:14:12.869Z,24.93
2018-12-03T20:16:41.220Z,21.10
2018-12-03T20:19:09.568Z,20.73
2018-12-03T20:21:39.131Z,30.60
2018-12-03T20:24:09.722Z,23.40
2018-12-03T20:26:39.243Z,26.63
2018-12-03T20:29:07.802Z,32.87
2018-12-03T20:31:36.239Z,25.00
2018-12-03T20:34:04.942Z,21.13
2018-12-03T20:36:33.792Z,28.93
2018-12-03T20:39:02.438Z,24.33
2018-12-03T20:41:30.941Z,22.80
2018-12-03T20:43:59.565Z,22.20
2018-12-03T20:46:27.929Z,28.73
2018-12-03T20:48:56.377Z,42.17
2018-12-03T20:51:25.050Z,32.83
2018-12-03T20:53:53.873Z,25.63
2018-12-03T20:56:22.258Z,24.93
2018-12-03T20:58:50.803Z,26.63
2018-12-03T21:01:19.221Z,27.03
2018-12-03T21:03:47.904Z,20.00
2018-12-03T21:06:17.143Z,26.13
2018-12-03T21:08:45.899Z,37.20
2018-12-03T21:11:15.523Z,26.87
2018-12-03T21:13:43.934Z,23.03
2018-12-03T21:16:12.555Z,28.80
2018-12-03T21:18:40.824Z,34.60
2018-12-03T21:21:19.877Z,31.00
2018-12-03T21:23:48.965Z,30.13
2018-12-03T21:26:17.352Z,28.80
2018-12-03T21:28:45.929Z,31.17
2018-12-03T21:31:14.264Z,28.83
2018-12-03T21:33:42.700Z,39.40
2018-12-03T21:36:11.065Z,24.80
2018-12-03T21:38:39.399Z,34.33
2018-12-03T21:41:07.746Z,25.40
2018-12-03T21:43:36.107Z,29.30
2018-12-03T21:46:04.405Z,48.40
2018-12-03T21:48:32.770Z,78.33
2018-12-03T21:51:01.103Z,85.03
2018-12-03T21:53:29.533Z,21.40
2018-12-03T21:55:57.996Z,27.10
2018-12-03T21:58:26.103Z,18.03
2018-12-03T22:00:54.713Z,14.90
2018-12-03T22:03:23.046Z,22.73
2018-12-03T22:05:51.375Z,23.27
2018-12-03T22:08:19.720Z,21.70
2018-12-03T22:10:48.062Z,17.23
2018-12-03T22:13:16.399Z,37.13
2018-12-03T22:15:44.747Z,22.87
2018-12-03T22:18:13.079Z,64.53
2018-12-03T22:20:41.423Z,80.80
2018-12-03T22:23:09.806Z,35.50
2018-12-03T22:25:38.141Z,27.27
2018-12-03T22:28:06.469Z,23.30
2018-12-03T22:30:34.810Z,22.73
2018-12-03T22:33:03.217Z,20.27
2018-12-03T22:35:31.562Z,20.70
2018-12-03T22:37:59.898Z,18.40
2018-12-03T22:40:28.236Z,25.80
2018-12-03T22:42:56.958Z,17.37
2018-12-03T22:45:25.271Z,23.20
2018-12-03T22:47:53.632Z,19.70
2018-12-03T22:50:21.968Z,18.00
2018-12-03T22:52:50.314Z,22.90
2018-12-03T22:55:18.640Z,21.20
2018-12-03T22:57:47.004Z,19.00
2018-12-03T23:00:15.338Z,26.53
2018-12-03T23:02:43.769Z,16.43
2018-12-03T23:05:12.108Z,18.27
2018-12-03T23:07:40.670Z,17.37
2018-12-03T23:10:08.804Z,25.43
2018-12-03T23:12:37.136Z,21.30
2018-12-03T23:15:05.475Z,21.77
2018-12-03T23:17:33.806Z,22.60
2018-12-03T23:20:02.140Z,17.57
2018-12-03T23:22:30.474Z,13.97
2018-12-03T23:24:58.857Z,17.87
2018-12-03T23:27:27.191Z,17.53
2018-12-03T23:29:55.528Z,22.80
2018-12-03T23:32:23.860Z,17.33
2018-12-03T23:34:52.192Z,21.73
2018-12-03T23:37:20.525Z,27.70
2018-12-03T23:39:48.866Z,27.13
2018-12-03T23:42:17.190Z,40.80
2018-12-03T23:44:46.337Z,38.53
2018-12-03T23:47:13.853Z,44.07
2018-12-03T23:49:42.202Z,34.33
2018-12-03T23:52:10.524Z,32.63
2018-12-03T23:54:38.875Z,26.93
2018-12-03T23:57:07.192Z,30.80
2018-12-03T23:59:35.610Z,24.53
